createdAt,value
2022-09-23T00:01:08.573Z,4.82
2022-09-23T00:03:38.171Z,4.45
2022-09-23T00:06:07.763Z,4.80
2022-09-23T00:08:35.129Z,4.40
2022-09-23T00:11:22.961Z,4.80
2022-09-23T00:13:52.443Z,5.28
2022-09-23T00:16:22.875Z,4.97
2022-09-23T00:18:50.582Z,5.57
2022-09-23T00:21:18.933Z,5.47
2022-09-23T00:23:45.456Z,5.78
2022-09-23T00:26:14.001Z,5.25
2022-09-23T00:28:40.654Z,6.28
2022-09-23T00:31:12.410Z,5.35
2022-09-23T00:33:40.496Z,5.90
2022-09-23T00:36:11.008Z,6.53
2022-09-23T00:38:38.793Z,6.13
2022-09-23T00:41:05.634Z,6.40
2022-09-23T00:43:39.726Z,6.13
2022-09-23T00:46:09.058Z,5.90
2022-09-23T00:48:39.126Z,6.40
2022-09-23T00:51:09.577Z,6.72
2022-09-23T00:53:36.209Z,6.90
2022-09-23T00:56:07.247Z,6.30
2022-09-23T00:58:37.216Z,6.80
2022-09-23T01:01:04.500Z,6.63
2022-09-23T01:03:31.243Z,6.68
2022-09-23T01:05:58.876Z,6.53
2022-09-23T01:08:27.012Z,7.88
2022-09-23T01:11:27.958Z,6.63
2022-09-23T01:14:13.251Z,6.43
2022-09-23T01:16:58.338Z,6.80
2022-09-23T01:19:46.649Z,6.88
2022-09-23T01:22:35.637Z,6.95
2022-09-23T01:25:05.022Z,6.82
2022-09-23T01:27:56.687Z,7.22
2022-09-23T01:30:45.930Z,7.40
2022-09-23T01:33:37.246Z,7.90
2022-09-23T01:36:10.554Z,7.18
2022-09-23T01:38:44.719Z,7.80
2022-09-23T01:41:30.052Z,6.93
2022-09-23T01:44:05.680Z,6.60
2022-09-23T01:46:47.800Z,7.43
2022-09-23T01:49:25.924Z,6.85
2022-09-23T01:52:05.821Z,7.57
2022-09-23T01:54:57.781Z,7.38
2022-09-23T01:57:40.175Z,7.30
2022-09-23T02:00:14.179Z,6.70
2022-09-23T02:02:49.789Z,7.00
2022-09-23T02:05:30.201Z,7.25
2022-09-23T02:08:15.772Z,7.40
2022-09-23T02:11:00.552Z,7.30
2022-09-23T02:13:48.639Z,7.80
2022-09-23T02:16:25.471Z,7.50
2022-09-23T02:18:57.742Z,7.75
2022-09-23T02:21:30.030Z,6.93
2022-09-23T02:24:15.077Z,7.53
2022-09-23T02:26:54.167Z,7.63
2022-09-23T02:29:26.933Z,7.38
2022-09-23T02:31:56.532Z,6.90
2022-09-23T02:34:44.774Z,7.18
2022-09-23T02:37:27.883Z,7.30
2022-09-23T02:40:06.250Z,7.63
2022-09-23T02:43:10.556Z,6.78
2022-09-23T02:45:38.963Z,8.18
2022-09-23T02:48:33.224Z,8.52
2022-09-23T02:51:02.294Z,7.50
2022-09-23T02:53:30.347Z,7.65
2022-09-23T02:55:56.808Z,7.75
2022-09-23T02:58:23.517Z,7.82
2022-09-23T03:01:08.443Z,8.85
2022-09-23T03:03:49.378Z,7.78
2022-09-23T03:06:30.499Z,7.68
2022-09-23T03:09:24.941Z,8.18
2022-09-23T03:12:02.916Z,8.02
2022-09-23T03:14:41.042Z,8.02
2022-09-23T03:17:20.638Z,9.48
2022-09-23T03:19:58.224Z,7.63
2022-09-23T03:22:31.149Z,8.27
2022-09-23T03:25:07.195Z,10.38
2022-09-23T03:27:35.929Z,8.88
2022-09-23T03:30:04.655Z,9.25
2022-09-23T03:32:34.240Z,10.07
2022-09-23T03:35:05.782Z,8.25
2022-09-23T03:37:53.305Z,8.77
2022-09-23T03:40:33.085Z,8.82
2022-09-23T03:43:01.506Z,8.80
2022-09-23T03:45:33.100Z,10.32
2022-09-23T03:48:00.644Z,8.82
2022-09-23T03:50:27.818Z,8.40
2022-09-23T03:52:54.298Z,9.77
2022-09-23T03:55:21.237Z,11.15
2022-09-23T03:57:47.963Z,10.02
2022-09-23T04:00:15.093Z,8.85
2022-09-23T04:02:42.153Z,10.73
2022-09-23T04:05:10.082Z,9.88
2022-09-23T04:07:36.530Z,9.32
2022-09-23T04:10:04.892Z,9.55
2022-09-23T04:12:31.353Z,9.23
2022-09-23T04:14:58.965Z,10.18
2022-09-23T04:17:25.430Z,9.85
2022-09-23T04:19:51.845Z,8.93
2022-09-23T04:22:18.372Z,8.68
2022-09-23T04:24:44.851Z,9.05
2022-09-23T04:27:11.305Z,8.95
2022-09-23T04:29:37.810Z,9.10
2022-09-23T04:32:04.389Z,9.07
2022-09-23T04:34:30.810Z,9.95
2022-09-23T04:36:57.286Z,10.15
2022-09-23T04:39:23.716Z,9.98
2022-09-23T04:41:50.169Z,10.00
2022-09-23T04:44:17.264Z,9.95
2022-09-23T04:46:48.211Z,10.20
2022-09-23T04:49:15.726Z,11.10
2022-09-23T04:51:43.467Z,12.15
2022-09-23T04:54:11.865Z,12.60
2022-09-23T04:56:39.700Z,11.68
2022-09-23T04:59:06.957Z,12.13
2022-09-23T05:01:35.052Z,12.48
2022-09-23T05:04:08.431Z,12.68
2022-09-23T05:06:35.769Z,14.90
2022-09-23T05:09:04.421Z,14.23
2022-09-23T05:11:31.633Z,15.00
2022-09-23T05:13:58.618Z,15.90
2022-09-23T05:16:25.618Z,15.95
2022-09-23T05:18:53.070Z,15.73
2022-09-23T05:21:22.443Z,16.52
2022-09-23T05:23:54.231Z,16.05
2022-09-23T05:26:22.521Z,16.38
2022-09-23T05:28:49.025Z,16.08
2022-09-23T05:31:20.253Z,17.30
2022-09-23T05:33:51.654Z,17.20
2022-09-23T05:36:18.767Z,15.20
2022-09-23T05:38:45.439Z,14.65
2022-09-23T05:41:13.626Z,16.40
2022-09-23T05:43:41.220Z,15.80
2022-09-23T05:46:11.403Z,17.30
2022-09-23T05:48:39.303Z,14.35
2022-09-23T05:51:11.153Z,16.60
2022-09-23T05:53:39.952Z,15.38
2022-09-23T05:56:09.695Z,14.05
2022-09-23T05:58:36.349Z,15.82
2022-09-23T06:01:12.266Z,16.52
2022-09-23T06:03:39.433Z,14.23
2022-09-23T06:06:06.580Z,14.68
2022-09-23T06:08:37.204Z,14.50
2022-09-23T06:11:09.721Z,13.98
2022-09-23T06:13:47.380Z,15.60
2022-09-23T06:16:18.720Z,14.18
2022-09-23T06:18:46.052Z,15.25
2022-09-23T06:21:17.096Z,15.38
2022-09-23T06:23:47.015Z,16.92
2022-09-23T06:26:49.716Z,13.93
2022-09-23T06:30:11.888Z,16.40
2022-09-23T06:39:37.896Z,14.45
2022-09-23T06:42:06.837Z,14.07
2022-09-23T06:44:35.965Z,13.77
2022-09-23T06:47:09.568Z,13.50
2022-09-23T06:49:57.720Z,13.50
2022-09-23T06:52:27.781Z,12.73
2022-09-23T06:54:57.133Z,13.30
2022-09-23T06:57:25.992Z,15.05
2022-09-23T06:59:52.701Z,12.93
2022-09-23T07:02:23.878Z,13.85
2022-09-23T07:04:51.536Z,13.07
2022-09-23T07:07:33.393Z,13.77
2022-09-23T07:12:56.250Z,14.33
2022-09-23T07:15:29.244Z,13.05
2022-09-23T07:18:00.011Z,13.38
2022-09-23T07:20:26.631Z,14.23
2022-09-23T07:23:06.602Z,14.50
2022-09-23T07:29:05.236Z,13.55
2022-09-23T07:37:48.502Z,12.50
2022-09-23T07:44:57.859Z,12.10
2022-09-23T07:47:31.527Z,12.13
2022-09-23T07:49:58.393Z,13.60
2022-09-23T07:52:25.144Z,14.55
2022-09-23T07:54:54.308Z,12.65
2022-09-23T07:57:20.815Z,14.25
2022-09-23T07:59:50.370Z,14.38
2022-09-23T08:02:17.020Z,14.45
2022-09-23T08:04:44.234Z,15.38
2022-09-23T08:07:13.009Z,14.02
2022-09-23T08:09:52.565Z,14.63
2022-09-23T08:12:22.275Z,16.45
2022-09-23T08:14:48.760Z,17.20
2022-09-23T08:17:15.293Z,15.82
2022-09-23T08:19:45.510Z,15.68
2022-09-23T08:22:12.373Z,16.23
2022-09-23T08:24:41.155Z,16.17
2022-09-23T08:27:07.800Z,15.10
2022-09-23T08:29:37.078Z,17.33
2022-09-23T08:32:22.042Z,21.13
2022-09-23T08:34:51.746Z,20.05
2022-09-23T08:37:18.238Z,21.40
2022-09-23T08:39:45.318Z,20.83
2022-09-23T08:42:24.181Z,20.80
2022-09-23T08:44:57.582Z,21.02
2022-09-23T08:47:53.498Z,23.75
2022-09-23T08:50:46.464Z,23.52
2022-09-23T08:53:36.358Z,23.63
2022-09-23T08:56:14.264Z,23.83
2022-09-23T08:58:55.579Z,26.20
2022-09-23T09:01:45.595Z,26.95
2022-09-23T09:04:39.950Z,28.30
2022-09-23T09:10:06.591Z,26.92
2022-09-23T09:12:51.445Z,26.35
2022-09-23T09:15:26.613Z,28.63
2022-09-23T09:18:07.915Z,27.00
2022-09-23T09:20:57.634Z,25.80
2022-09-23T09:23:40.675Z,27.13
2022-09-23T09:26:23.287Z,26.88
2022-09-23T09:29:23.846Z,26.60
2022-09-23T09:31:57.817Z,24.42
2022-09-23T09:34:24.390Z,25.50
2022-09-23T09:37:13.698Z,25.95
2022-09-23T09:39:40.975Z,24.35
2022-09-23T09:42:19.084Z,24.70
2022-09-23T09:44:59.383Z,25.38
2022-09-23T09:47:47.736Z,25.90
2022-09-23T09:50:22.109Z,24.13
2022-09-23T09:52:49.381Z,25.20
2022-09-23T09:55:29.535Z,23.77
2022-09-23T09:58:04.028Z,23.38
2022-09-23T10:00:30.639Z,22.90
2022-09-23T10:03:15.388Z,23.20
2022-09-23T10:05:45.155Z,22.15
2022-09-23T10:08:35.208Z,22.67
2022-09-23T10:11:05.471Z,21.48
2022-09-23T10:13:32.209Z,21.33
2022-09-23T10:16:02.296Z,20.33
2022-09-23T10:18:49.296Z,19.65
2022-09-23T10:21:23.110Z,18.65
2022-09-23T10:24:01.625Z,16.42
2022-09-23T10:26:38.884Z,14.10
2022-09-23T10:29:22.413Z,12.40
2022-09-23T10:32:20.605Z,11.90
2022-09-23T10:34:52.364Z,10.27
2022-09-23T10:37:31.140Z,9.15
2022-09-23T10:40:17.133Z,8.95
2022-09-23T10:43:36.400Z,10.70
2022-09-23T10:46:25.564Z,8.60
2022-09-23T10:49:26.802Z,7.95
2022-09-23T10:52:16.333Z,8.77
2022-09-23T10:55:21.811Z,7.43
2022-09-23T10:58:04.352Z,8.25
2022-09-23T11:01:09.078Z,8.30
2022-09-23T11:04:18.092Z,8.30
2022-09-23T11:07:00.571Z,9.02
2022-09-23T11:09:49.883Z,8.23
2022-09-23T11:12:41.672Z,8.45
2022-09-23T11:15:21.715Z,8.13
2022-09-23T11:18:18.152Z,7.80
2022-09-23T11:20:54.618Z,6.95
2022-09-23T11:26:10.710Z,6.80
2022-09-23T11:28:42.508Z,6.95
2022-09-23T11:31:33.722Z,6.78
2022-09-23T11:34:21.415Z,6.75
2022-09-23T11:37:13.321Z,6.60
2022-09-23T11:39:52.526Z,7.00
2022-09-23T11:42:27.067Z,6.13
2022-09-23T11:45:03.867Z,7.13
2022-09-23T11:47:43.838Z,7.50
2022-09-23T11:50:18.931Z,6.00
2022-09-23T11:52:54.496Z,6.43
2022-09-23T11:55:28.807Z,7.00
2022-09-23T11:58:01.417Z,6.10
2022-09-23T12:00:39.648Z,5.80
2022-09-23T12:03:35.941Z,6.63
2022-09-23T12:06:34.587Z,5.60
2022-09-23T12:09:41.033Z,5.65
2022-09-23T12:12:26.851Z,5.15
2022-09-23T12:15:04.312Z,5.78
2022-09-23T12:17:49.713Z,5.65
2022-09-23T12:20:38.342Z,5.82
2022-09-23T12:23:28.234Z,5.10
2022-09-23T12:26:03.950Z,4.70
2022-09-23T12:28:36.083Z,4.32
2022-09-23T12:31:11.239Z,3.80
2022-09-23T12:33:38.693Z,4.10
2022-09-23T12:36:06.610Z,3.55
2022-09-23T12:38:56.901Z,2.83
2022-09-23T12:41:24.157Z,3.00
2022-09-23T12:44:00.142Z,2.88
2022-09-23T12:46:27.625Z,3.10
2022-09-23T12:49:00.570Z,4.05
2022-09-23T12:51:29.783Z,3.70
2022-09-23T12:54:14.277Z,2.78
2022-09-23T12:56:40.814Z,2.55
2022-09-23T12:59:10.319Z,2.40
2022-09-23T13:01:38.158Z,2.40
2022-09-23T13:04:23.877Z,2.72
2022-09-23T13:07:15.296Z,2.47
2022-09-23T13:09:46.633Z,2.45
2022-09-23T13:12:21.434Z,2.47
2022-09-23T13:14:52.509Z,1.77
2022-09-23T13:17:35.849Z,1.90
2022-09-23T13:20:06.444Z,2.15
2022-09-23T13:22:54.147Z,2.08
2022-09-23T13:25:33.686Z,1.95
2022-09-23T13:28:13.283Z,2.15
2022-09-23T13:30:49.191Z,2.40
2022-09-23T13:33:24.083Z,2.60
2022-09-23T13:35:52.844Z,2.90
2022-09-23T13:38:22.489Z,3.00
2022-09-23T13:40:49.558Z,2.85
2022-09-23T13:43:25.123Z,2.80
2022-09-23T13:45:51.896Z,2.33
2022-09-23T13:48:22.813Z,2.40
2022-09-23T13:50:53.270Z,3.10
2022-09-23T13:53:31.151Z,2.90
2022-09-23T13:56:15.702Z,3.30
2022-09-23T13:58:43.385Z,3.20
2022-09-23T14:01:34.310Z,3.72
2022-09-23T14:04:02.557Z,3.67
2022-09-23T14:06:37.145Z,3.47
2022-09-23T14:09:03.929Z,4.18
2022-09-23T14:11:33.511Z,4.05
2022-09-23T14:14:07.594Z,3.70
2022-09-23T14:16:38.310Z,4.00
2022-09-23T14:19:06.411Z,4.25
2022-09-23T14:21:38.305Z,3.78
2022-09-23T14:24:22.581Z,3.88
2022-09-23T14:26:55.707Z,3.58
2022-09-23T14:29:31.573Z,3.55
2022-09-23T14:32:05.984Z,3.90
2022-09-23T14:34:57.663Z,4.30
2022-09-23T14:37:44.849Z,3.90
2022-09-23T14:40:17.978Z,3.75
2022-09-23T14:43:07.883Z,3.80
2022-09-23T14:45:37.270Z,4.10
2022-09-23T14:48:10.559Z,4.07
2022-09-23T14:50:39.301Z,4.45
2022-09-23T14:53:35.169Z,4.45
2022-09-23T14:56:08.712Z,5.00
2022-09-23T14:58:43.026Z,4.20
2022-09-23T15:01:26.276Z,4.55
2022-09-23T15:03:54.382Z,4.40
2022-09-23T15:06:23.117Z,4.25
2022-09-23T15:08:51.687Z,4.45
2022-09-23T15:11:18.329Z,4.40
2022-09-23T15:13:51.256Z,4.22
2022-09-23T15:16:26.038Z,4.85
2022-09-23T15:18:59.007Z,4.72
2022-09-23T15:21:40.898Z,4.75
2022-09-23T15:24:37.738Z,4.55
2022-09-23T15:27:12.107Z,4.55
2022-09-23T15:29:38.874Z,4.75
2022-09-23T15:32:08.480Z,4.85
2022-09-23T15:34:38.774Z,4.68
2022-09-23T15:37:23.909Z,5.07
2022-09-23T15:39:50.947Z,5.18
2022-09-23T15:42:18.246Z,4.80
2022-09-23T15:44:44.824Z,4.35
2022-09-23T15:47:18.927Z,4.22
2022-09-23T15:49:48.959Z,3.92
2022-09-23T15:52:16.477Z,4.32
2022-09-23T15:54:43.816Z,4.25
2022-09-23T15:57:11.188Z,4.88
2022-09-23T15:59:38.134Z,5.35
2022-09-23T16:02:13.344Z,4.38
2022-09-23T16:04:39.910Z,4.78
2022-09-23T16:07:13.459Z,4.28
2022-09-23T16:09:40.031Z,4.45
2022-09-23T16:12:11.884Z,4.28
2022-09-23T16:14:38.421Z,4.30
2022-09-23T16:17:05.112Z,4.55
2022-09-23T16:19:34.116Z,4.55
2022-09-23T16:22:00.796Z,3.90
2022-09-23T16:24:28.264Z,4.65
2022-09-23T16:26:59.783Z,4.57
2022-09-23T16:29:27.577Z,5.68
2022-09-23T16:31:55.632Z,8.68
2022-09-23T16:34:22.319Z,5.90
2022-09-23T16:36:48.985Z,5.03
2022-09-23T16:39:15.837Z,5.28
2022-09-23T16:41:43.520Z,5.57
2022-09-23T16:44:12.519Z,4.80
2022-09-23T16:46:42.771Z,5.40
2022-09-23T16:49:12.022Z,6.25
2022-09-23T16:51:38.926Z,6.03
2022-09-23T16:54:11.788Z,6.28
2022-09-23T16:56:43.754Z,6.18
2022-09-23T16:59:11.661Z,6.60
2022-09-23T17:01:56.829Z,5.97
2022-09-23T17:04:23.360Z,6.22
2022-09-23T17:06:52.233Z,7.15
2022-09-23T17:09:21.171Z,6.57
2022-09-23T17:11:58.718Z,6.65
2022-09-23T17:14:25.246Z,8.20
2022-09-23T17:16:51.778Z,7.63
2022-09-23T17:19:18.346Z,8.23
2022-09-23T17:21:44.872Z,6.18
2022-09-23T17:24:11.515Z,7.38
2022-09-23T17:26:38.217Z,6.32
2022-09-23T17:29:05.652Z,6.18
2022-09-23T17:31:32.439Z,4.72
2022-09-23T17:33:59.158Z,5.50
2022-09-23T17:36:25.606Z,5.38
2022-09-23T17:38:55.000Z,4.25
2022-09-23T17:41:21.948Z,3.90
2022-09-23T17:43:53.851Z,4.40
2022-09-23T17:46:20.383Z,4.32
2022-09-23T17:48:47.253Z,4.40
2022-09-23T17:51:19.907Z,7.20
2022-09-23T17:53:48.314Z,8.38
2022-09-23T17:56:29.984Z,5.10
2022-09-23T17:59:00.387Z,4.10
2022-09-23T18:01:27.722Z,6.07
2022-09-23T18:03:59.649Z,5.25
2022-09-23T18:06:28.993Z,3.40
2022-09-23T18:08:58.384Z,3.00
2022-09-23T18:11:27.623Z,3.90
2022-09-23T18:13:59.599Z,3.28
2022-09-23T18:16:31.551Z,3.05
2022-09-23T18:19:00.583Z,3.05
2022-09-23T18:21:32.579Z,3.00
2022-09-23T18:24:28.273Z,2.90
2022-09-23T18:26:49.701Z,4.13
2022-09-23T18:29:16.649Z,4.25
2022-09-23T18:31:44.394Z,4.00
2022-09-23T18:34:13.102Z,3.50
2022-09-23T18:36:40.354Z,3.22
2022-09-23T18:39:07.333Z,2.92
2022-09-23T18:41:35.067Z,3.20
2022-09-23T18:44:01.871Z,3.47
2022-09-23T18:46:29.781Z,3.58
2022-09-23T18:49:15.498Z,3.75
2022-09-23T18:51:54.586Z,4.30
2022-09-23T18:54:23.016Z,5.78
2022-09-23T18:56:52.453Z,4.03
2022-09-23T18:59:20.838Z,3.20
2022-09-23T19:01:50.120Z,3.25
2022-09-23T19:04:19.278Z,3.50
2022-09-23T19:06:46.131Z,3.83
2022-09-23T19:09:14.036Z,3.05
2022-09-23T19:11:40.547Z,3.47
2022-09-23T19:14:11.188Z,3.95
2022-09-23T19:16:39.248Z,3.75
2022-09-23T19:19:06.344Z,4.82
2022-09-23T19:21:33.428Z,3.72
2022-09-23T19:24:05.203Z,4.07
2022-09-23T19:26:38.092Z,3.30
2022-09-23T19:29:06.172Z,3.03
2022-09-23T19:31:35.543Z,3.17
2022-09-23T19:34:06.047Z,2.83
2022-09-23T19:36:34.247Z,2.75
2022-09-23T19:39:06.888Z,2.65
2022-09-23T19:41:35.408Z,2.67
2022-09-23T19:44:03.301Z,3.15
2022-09-23T19:46:31.171Z,2.83
2022-09-23T19:48:58.412Z,2.55
2022-09-23T19:51:24.911Z,2.88
2022-09-23T19:53:51.461Z,2.80
2022-09-23T19:56:18.281Z,2.67
2022-09-23T19:58:53.299Z,2.92
2022-09-23T20:01:21.649Z,2.67
2022-09-23T20:03:48.766Z,2.60
2022-09-23T20:06:16.410Z,2.60
2022-09-23T20:08:44.316Z,2.90
2022-09-23T20:11:14.812Z,2.78
2022-09-23T20:13:43.921Z,2.80
2022-09-23T20:16:14.646Z,3.20
2022-09-23T20:18:42.267Z,3.35
2022-09-23T20:21:11.977Z,3.00
2022-09-23T20:23:38.543Z,3.30
2022-09-23T20:26:24.914Z,3.65
2022-09-23T20:28:51.580Z,5.78
2022-09-23T20:31:20.788Z,3.88
2022-09-23T20:33:57.384Z,2.72
2022-09-23T20:39:01.960Z,3.70
2022-09-23T20:41:30.083Z,3.83
2022-09-23T20:43:59.580Z,3.65
2022-09-23T20:46:27.186Z,3.20
2022-09-23T20:48:56.913Z,2.90
2022-09-23T20:51:24.880Z,3.05
2022-09-23T20:53:53.029Z,3.35
2022-09-23T20:56:23.825Z,3.08
2022-09-23T20:58:50.868Z,2.97
2022-09-23T21:01:19.401Z,3.17
2022-09-23T21:03:48.381Z,3.17
2022-09-23T21:06:17.138Z,3.17
2022-09-23T21:08:44.657Z,3.25
2022-09-23T21:11:14.942Z,3.10
2022-09-23T21:13:49.131Z,3.25
2022-09-23T21:16:17.707Z,3.10
2022-09-23T21:18:45.559Z,3.22
2022-09-23T21:21:14.063Z,3.58
2022-09-23T21:23:42.552Z,3.67
2022-09-23T21:26:21.106Z,3.30
2022-09-23T21:28:50.167Z,3.03
2022-09-23T21:31:25.668Z,3.20
2022-09-23T21:33:56.838Z,3.53
2022-09-23T21:36:24.777Z,3.25
2022-09-23T21:38:52.117Z,3.40
2022-09-23T21:41:19.377Z,4.45
2022-09-23T21:43:45.953Z,3.80
2022-09-23T21:46:15.387Z,3.75
2022-09-23T21:48:42.696Z,4.15
2022-09-23T21:51:40.867Z,4.13
2022-09-23T21:54:15.688Z,3.70
2022-09-23T21:56:43.837Z,3.20
2022-09-23T21:59:10.852Z,3.65
2022-09-23T22:01:40.881Z,3.90
2022-09-23T22:04:14.712Z,4.38
2022-09-23T22:06:41.613Z,5.05
2022-09-23T22:09:12.609Z,4.50
2022-09-23T22:11:58.629Z,4.80
2022-09-23T22:14:26.301Z,4.07
2022-09-23T22:16:57.860Z,4.68
2022-09-23T22:19:26.778Z,4.70
2022-09-23T22:21:53.947Z,5.15
2022-09-23T22:24:20.405Z,4.18
2022-09-23T22:26:47.190Z,3.50
2022-09-23T22:29:34.051Z,3.45
2022-09-23T22:32:22.928Z,3.50
2022-09-23T22:34:51.559Z,3.28
2022-09-23T22:37:30.465Z,3.70
2022-09-23T22:39:57.412Z,3.50
2022-09-23T22:42:24.322Z,2.75
2022-09-23T22:44:51.277Z,3.40
2022-09-23T22:47:19.106Z,3.30
2022-09-23T22:49:46.331Z,3.38
2022-09-23T22:52:14.856Z,3.38
2022-09-23T22:54:41.489Z,3.72
2022-09-23T22:57:09.130Z,3.25
2022-09-23T22:59:37.321Z,2.88
2022-09-23T23:02:05.059Z,2.63
2022-09-23T23:04:32.117Z,3.47
2022-09-23T23:06:58.992Z,2.80
2022-09-23T23:09:25.766Z,2.75
2022-09-23T23:11:52.272Z,3.38
2022-09-23T23:14:18.954Z,3.42
2022-09-23T23:16:46.059Z,3.17
2022-09-23T23:19:16.503Z,4.00
2022-09-23T23:21:44.823Z,4.05
2022-09-23T23:24:17.375Z,4.05
2022-09-23T23:26:44.901Z,3.53
2022-09-23T23:29:13.377Z,3.75
2022-09-23T23:31:40.333Z,4.40
2022-09-23T23:34:10.690Z,5.00
2022-09-23T23:36:37.478Z,4.70
2022-09-23T23:39:04.542Z,4.35
2022-09-23T23:41:31.621Z,4.30
2022-09-23T23:43:59.636Z,4.43
2022-09-23T23:46:28.252Z,3.95
2022-09-23T23:48:55.884Z,3.83
2022-09-23T23:51:23.296Z,4.15
2022-09-23T23:53:50.032Z,3.17
2022-09-23T23:56:18.863Z,3.13
2022-09-23T23:58:45.859Z,3.05
